Sewalls Point, Florida
Current Conditions -  °F | °C
As of 10:47 AM on Thursday 18 Dec 2014 (Local Time) from KSUA Reporting Station
Scattered Clouds Scattered Clouds  
Wind Chill: 64°   Ceiling: Unl
Heat Index: 64°   Visibility: 7mi
Dew Point: 48°   Wind: 6mph
Humidity: 56%   Direction: 320°NW
Pressure: 30.2"   Gusts: NA
Location:  27.1868°N, 80.2201°W
Report Text: KSUA 181547Z 32005KT 7SM SCT050 18/09 A3020
Loading
Personal Weather Stations






























Interactive Weather Map New forecast layout! Learn more

10-Day Weather Forecast

Advertisements
Track Severe Weather on mobile